createdAt,value
2022-08-22T00:00:58.098Z,1.85
2022-08-22T00:02:47.030Z,2.40
2022-08-22T00:02:48.856Z,3.20
2022-08-22T00:02:58.682Z,3.95
2022-08-22T00:04:20.363Z,3.60
2022-08-22T00:07:37.524Z,1.80
2022-08-22T00:10:55.333Z,4.35
2022-08-22T00:14:03.367Z,2.42
2022-08-22T00:17:27.903Z,4.30
2022-08-22T00:20:41.431Z,1.90
2022-08-22T00:23:52.626Z,2.85
2022-08-22T00:27:04.423Z,1.95
2022-08-22T00:30:13.851Z,6.65
2022-08-22T00:33:29.067Z,2.35
2022-08-22T00:36:41.185Z,2.10
2022-08-22T00:39:52.257Z,3.05
2022-08-22T00:43:21.355Z,5.72
2022-08-22T00:46:56.966Z,5.13
2022-08-22T00:50:27.341Z,7.32
2022-08-22T00:53:46.983Z,3.88
2022-08-22T00:57:19.450Z,3.67
2022-08-22T01:00:28.055Z,3.10
2022-08-22T01:03:59.990Z,2.15
2022-08-22T01:07:19.842Z,2.28
2022-08-22T01:10:40.694Z,2.45
2022-08-22T01:14:04.231Z,1.98
2022-08-22T01:17:51.019Z,4.78
2022-08-22T01:21:40.038Z,5.20
2022-08-22T01:25:41.260Z,6.00
2022-08-22T01:29:35.522Z,3.42
2022-08-22T01:33:33.219Z,3.17
2022-08-22T01:37:18.127Z,2.80
2022-08-22T01:41:18.069Z,2.88
2022-08-22T01:44:39.338Z,2.47
2022-08-22T01:47:49.811Z,2.10
2022-08-22T01:51:11.323Z,2.33
2022-08-22T01:54:40.655Z,2.00
2022-08-22T01:57:54.429Z,2.20
2022-08-22T02:01:19.180Z,6.88
2022-08-22T02:04:37.282Z,4.78
2022-08-22T02:07:50.212Z,1.98
2022-08-22T02:11:04.412Z,2.08
2022-08-22T02:14:24.071Z,3.13
2022-08-22T02:17:33.753Z,2.40
2022-08-22T02:21:00.239Z,2.60
2022-08-22T02:24:18.156Z,2.22
2022-08-22T02:27:37.084Z,2.33
2022-08-22T02:31:03.623Z,2.20
2022-08-22T02:34:39.935Z,2.40
2022-08-22T02:37:56.596Z,2.22
2022-08-22T02:41:11.645Z,4.05
2022-08-22T02:44:24.131Z,3.13
2022-08-22T02:47:34.735Z,3.35
2022-08-22T02:50:45.718Z,5.18
2022-08-22T02:53:59.251Z,3.80
2022-08-22T02:57:13.064Z,2.95
2022-08-22T03:00:32.588Z,3.78
2022-08-22T03:03:42.070Z,2.40
2022-08-22T03:07:05.670Z,2.50
2022-08-22T03:10:21.955Z,4.97
2022-08-22T03:13:37.791Z,3.42
2022-08-22T03:16:53.898Z,2.65
2022-08-22T03:20:08.026Z,6.63
2022-08-22T03:23:21.817Z,3.47
2022-08-22T03:26:30.752Z,4.85
2022-08-22T03:29:38.693Z,4.05
2022-08-22T03:32:56.415Z,4.07
2022-08-22T03:36:11.265Z,4.97
2022-08-22T03:39:20.642Z,2.25
2022-08-22T03:43:22.134Z,2.38
2022-08-22T03:47:08.690Z,5.03
2022-08-22T03:50:48.577Z,3.53
2022-08-22T03:54:56.210Z,3.55
2022-08-22T03:58:31.271Z,2.63
2022-08-22T04:02:01.912Z,2.65
2022-08-22T04:05:49.578Z,4.10
2022-08-22T04:09:41.708Z,4.43
2022-08-22T04:13:12.739Z,4.53
2022-08-22T04:16:51.714Z,2.88
2022-08-22T04:20:22.139Z,4.60
2022-08-22T04:23:59.077Z,3.15
2022-08-22T04:27:11.807Z,5.50
2022-08-22T04:30:26.263Z,3.08
2022-08-22T04:33:36.287Z,5.57
2022-08-22T04:36:46.013Z,3.35
2022-08-22T04:39:56.820Z,4.93
2022-08-22T04:43:09.162Z,5.82
2022-08-22T04:46:21.291Z,3.38
2022-08-22T04:49:33.075Z,5.82
2022-08-22T04:52:56.951Z,2.47
2022-08-22T04:56:12.493Z,3.05
2022-08-22T04:59:20.005Z,2.67
2022-08-22T05:02:27.921Z,6.05
2022-08-22T05:05:39.352Z,5.47
2022-08-22T05:08:45.790Z,5.95
2022-08-22T05:11:58.157Z,9.13
2022-08-22T05:15:10.060Z,5.28
2022-08-22T05:18:21.226Z,6.63
2022-08-22T05:21:31.189Z,6.03
2022-08-22T05:24:40.630Z,5.55
2022-08-22T05:27:56.299Z,4.32
2022-08-22T05:31:06.027Z,3.72
2022-08-22T05:34:16.690Z,2.88
2022-08-22T05:37:25.427Z,7.65
2022-08-22T05:40:32.523Z,2.25
2022-08-22T05:43:42.961Z,4.32
2022-08-22T05:46:56.116Z,9.90
2022-08-22T05:50:05.202Z,4.63
2022-08-22T05:53:17.090Z,4.00
2022-08-22T05:56:30.191Z,5.65
2022-08-22T05:59:41.627Z,2.13
2022-08-22T06:02:56.175Z,4.45
2022-08-22T06:06:06.721Z,5.53
2022-08-22T06:09:19.559Z,6.60
2022-08-22T06:12:33.502Z,4.88
2022-08-22T06:15:47.274Z,4.72
2022-08-22T06:18:54.465Z,5.82
2022-08-22T06:22:00.370Z,4.20
2022-08-22T06:25:12.817Z,5.93
2022-08-22T06:28:23.041Z,2.75
2022-08-22T06:31:33.793Z,4.75
2022-08-22T06:34:43.656Z,4.90
2022-08-22T06:37:49.349Z,5.47
2022-08-22T06:40:55.093Z,7.47
2022-08-22T06:44:01.008Z,5.65
2022-08-22T06:47:15.597Z,3.13
2022-08-22T06:50:25.633Z,10.55
2022-08-22T06:53:37.244Z,7.80
2022-08-22T06:56:50.477Z,5.22
2022-08-22T06:59:57.496Z,5.13
2022-08-22T07:03:09.570Z,1.95
2022-08-22T07:06:16.985Z,4.43
2022-08-22T07:09:26.770Z,5.15
2022-08-22T07:12:37.814Z,4.68
2022-08-22T07:15:44.278Z,5.28
2022-08-22T07:18:52.315Z,6.13
2022-08-22T07:21:58.100Z,3.35
2022-08-22T07:25:09.546Z,5.13
2022-08-22T07:28:36.750Z,5.38
2022-08-22T07:31:49.427Z,7.22
2022-08-22T07:35:09.286Z,7.65
2022-08-22T07:38:23.327Z,9.82
2022-08-22T07:41:36.703Z,7.32
2022-08-22T07:45:07.520Z,2.97
2022-08-22T07:48:26.267Z,2.70
2022-08-22T07:51:37.563Z,4.25
2022-08-22T07:54:48.109Z,2.38
2022-08-22T07:57:57.448Z,8.32
2022-08-22T08:01:03.474Z,10.85
2022-08-22T08:04:13.596Z,7.88
2022-08-22T08:07:23.549Z,6.43
2022-08-22T08:10:32.670Z,5.90
2022-08-22T08:13:41.619Z,4.47
2022-08-22T08:16:55.651Z,4.22
2022-08-22T08:20:06.113Z,5.38
2022-08-22T08:23:22.202Z,2.83
2022-08-22T08:26:34.452Z,6.78
2022-08-22T08:29:40.588Z,4.68
2022-08-22T08:32:52.259Z,3.17
2022-08-22T08:36:07.188Z,4.50
2022-08-22T08:39:27.233Z,5.20
2022-08-22T08:43:14.083Z,5.65
2022-08-22T08:46:50.199Z,1.75
2022-08-22T08:50:31.683Z,5.53
2022-08-22T08:54:10.448Z,6.38
2022-08-22T08:57:22.416Z,2.65
2022-08-22T09:00:48.926Z,3.90
2022-08-22T09:04:19.621Z,3.33
2022-08-22T09:07:52.113Z,7.00
2022-08-22T09:11:52.724Z,1.40
2022-08-22T09:15:27.566Z,2.40
2022-08-22T09:19:07.869Z,1.60
2022-08-22T09:23:02.566Z,3.50
2022-08-22T09:26:17.114Z,1.38
2022-08-22T09:29:51.659Z,8.52
2022-08-22T09:33:06.685Z,4.90
2022-08-22T09:36:22.478Z,1.40
2022-08-22T09:39:34.507Z,1.23
2022-08-22T09:42:47.979Z,3.30
2022-08-22T09:46:07.181Z,2.65
2022-08-22T09:49:21.750Z,1.30
2022-08-22T09:52:54.773Z,1.30
2022-08-22T09:56:15.121Z,1.95
2022-08-22T09:59:27.283Z,2.22
2022-08-22T10:02:43.494Z,1.20
2022-08-22T10:05:58.349Z,1.35
2022-08-22T10:09:09.067Z,1.38
2022-08-22T10:12:24.097Z,2.03
2022-08-22T10:15:37.578Z,1.75
2022-08-22T10:18:52.829Z,1.08
2022-08-22T10:22:30.232Z,3.30
2022-08-22T10:25:41.622Z,1.65
2022-08-22T10:28:57.701Z,2.03
2022-08-22T10:32:15.958Z,2.55
2022-08-22T10:35:28.061Z,1.67
2022-08-22T10:38:46.845Z,2.10
2022-08-22T10:42:17.004Z,1.60
2022-08-22T10:45:36.831Z,1.40
2022-08-22T10:48:49.530Z,1.75
2022-08-22T10:52:09.696Z,1.52
2022-08-22T10:55:26.411Z,2.30
2022-08-22T10:58:38.974Z,1.33
2022-08-22T11:01:54.424Z,2.17
2022-08-22T11:05:36.309Z,1.00
2022-08-22T11:09:08.746Z,2.33
2022-08-22T11:12:23.444Z,3.17
2022-08-22T11:16:09.101Z,1.85
2022-08-22T11:19:24.701Z,1.85
2022-08-22T11:22:39.011Z,1.90
2022-08-22T11:26:00.730Z,1.52
2022-08-22T11:29:33.075Z,1.95
2022-08-22T11:32:47.575Z,1.40
2022-08-22T11:36:04.454Z,4.15
2022-08-22T11:39:21.950Z,1.40
2022-08-22T11:42:34.553Z,0.90
2022-08-22T11:45:48.519Z,1.73
2022-08-22T11:49:31.750Z,1.45
2022-08-22T11:53:18.101Z,2.83
2022-08-22T11:56:27.758Z,2.95
2022-08-22T11:59:56.981Z,1.20
2022-08-22T12:03:25.585Z,3.35
2022-08-22T12:06:56.391Z,2.05
2022-08-22T12:10:04.925Z,1.35
2022-08-22T12:13:19.059Z,2.25
2022-08-22T12:16:47.460Z,1.90
2022-08-22T12:20:16.612Z,0.95
2022-08-22T12:23:57.013Z,2.78
2022-08-22T12:27:28.909Z,5.78
2022-08-22T12:30:40.334Z,1.98
2022-08-22T12:34:07.409Z,2.42
2022-08-22T12:37:20.358Z,2.58
2022-08-22T12:40:43.599Z,2.53
2022-08-22T12:43:56.721Z,2.35
2022-08-22T12:47:21.658Z,1.52
2022-08-22T12:50:40.669Z,2.15
2022-08-22T12:54:22.106Z,3.20
2022-08-22T12:57:39.105Z,1.02
2022-08-22T13:00:47.380Z,1.48
2022-08-22T13:03:56.979Z,1.20
2022-08-22T13:07:11.578Z,1.17
2022-08-22T13:10:40.339Z,2.90
2022-08-22T13:13:56.888Z,2.17
2022-08-22T13:17:15.185Z,1.52
2022-08-22T13:20:34.441Z,1.20
2022-08-22T13:23:44.629Z,1.00
2022-08-22T13:26:56.627Z,2.97
2022-08-22T13:30:06.526Z,1.95
2022-08-22T13:33:17.556Z,3.55
2022-08-22T13:36:24.521Z,3.20
2022-08-22T13:39:36.352Z,4.38
2022-08-22T13:42:54.244Z,2.08
2022-08-22T13:46:03.638Z,1.20
2022-08-22T13:49:13.854Z,1.02
2022-08-22T13:52:30.139Z,1.20
2022-08-22T13:55:44.494Z,1.80
2022-08-22T13:58:59.922Z,1.98
2022-08-22T14:02:15.195Z,4.57
2022-08-22T14:05:31.100Z,1.00
2022-08-22T14:08:37.927Z,1.17
2022-08-22T14:11:55.150Z,1.70
2022-08-22T14:15:04.217Z,4.03
2022-08-22T14:18:14.013Z,3.35
2022-08-22T14:21:40.182Z,2.28
2022-08-22T14:24:55.711Z,1.95
2022-08-22T14:28:09.060Z,2.90
2022-08-22T14:31:16.318Z,1.20
2022-08-22T14:34:22.915Z,1.65
2022-08-22T14:37:39.020Z,1.05
2022-08-22T14:40:46.838Z,2.35
2022-08-22T14:43:58.172Z,4.40
2022-08-22T14:47:32.554Z,1.52
2022-08-22T14:50:46.184Z,2.15
2022-08-22T14:53:53.663Z,2.85
2022-08-22T14:57:03.442Z,1.27
2022-08-22T15:00:26.048Z,1.45
2022-08-22T15:03:38.462Z,1.10
2022-08-22T15:06:53.918Z,1.00
2022-08-22T15:10:06.200Z,1.38
2022-08-22T15:13:13.048Z,4.50
2022-08-22T15:16:24.106Z,1.23
2022-08-22T15:19:41.199Z,1.70
2022-08-22T15:22:47.296Z,1.48
2022-08-22T15:26:00.828Z,2.88
2022-08-22T15:29:18.670Z,0.90
2022-08-22T15:32:29.150Z,1.77
2022-08-22T15:35:38.877Z,2.33
2022-08-22T15:38:48.139Z,4.88
2022-08-22T15:41:53.645Z,1.75
2022-08-22T15:44:59.707Z,1.35
2022-08-22T15:48:10.454Z,1.50
2022-08-22T15:51:40.446Z,1.65
2022-08-22T15:55:28.718Z,1.42
2022-08-22T15:58:37.245Z,1.20
2022-08-22T16:01:49.801Z,3.15
2022-08-22T16:05:19.645Z,9.85
2022-08-22T16:08:32.817Z,4.75
2022-08-22T16:11:40.638Z,3.30
2022-08-22T16:14:50.992Z,3.15
2022-08-22T16:17:56.201Z,3.67
2022-08-22T16:21:03.288Z,4.55
2022-08-22T16:24:50.537Z,4.50
2022-08-22T16:27:58.333Z,2.15
2022-08-22T16:31:21.739Z,1.80
2022-08-22T16:34:39.906Z,4.80
2022-08-22T16:37:49.942Z,2.88
2022-08-22T16:40:56.738Z,2.60
2022-08-22T16:44:24.245Z,2.47
2022-08-22T16:47:42.962Z,3.83
2022-08-22T16:51:14.797Z,1.70
2022-08-22T16:54:44.902Z,5.50
2022-08-22T16:58:06.502Z,1.38
2022-08-22T17:01:20.795Z,4.30
2022-08-22T17:04:31.718Z,4.93
2022-08-22T17:07:54.573Z,3.70
2022-08-22T17:11:15.161Z,6.35
2022-08-22T17:14:35.283Z,2.05
2022-08-22T17:17:55.413Z,6.75
2022-08-22T17:21:10.457Z,4.63
2022-08-22T17:24:33.468Z,6.07
2022-08-22T17:27:41.840Z,3.05
2022-08-22T17:31:10.438Z,14.23
2022-08-22T17:34:29.293Z,17.15
2022-08-22T17:37:42.762Z,16.70
2022-08-22T17:40:59.157Z,5.90
2022-08-22T17:44:14.046Z,10.05
2022-08-22T17:47:25.470Z,5.32
2022-08-22T17:50:40.158Z,6.68
2022-08-22T17:53:51.029Z,8.55
2022-08-22T17:57:05.787Z,5.60
2022-08-22T18:00:25.658Z,1.85
2022-08-22T18:03:35.873Z,1.80
2022-08-22T18:06:55.425Z,5.70
2022-08-22T18:10:14.214Z,5.00
2022-08-22T18:13:33.779Z,5.32
2022-08-22T18:16:47.651Z,9.10
2022-08-22T18:20:01.080Z,5.78
2022-08-22T18:23:28.393Z,2.70
2022-08-22T18:26:52.653Z,4.93
2022-08-22T18:30:05.847Z,4.43
2022-08-22T18:33:19.574Z,5.53
2022-08-22T18:36:32.128Z,15.70
2022-08-22T18:39:46.710Z,14.40
2022-08-22T18:42:58.140Z,14.57
2022-08-22T18:46:31.935Z,16.00
2022-08-22T18:49:54.454Z,4.93
2022-08-22T18:53:01.960Z,13.93
2022-08-22T18:56:11.824Z,6.82
2022-08-22T18:59:56.465Z,7.30
2022-08-22T19:03:36.039Z,18.92
2022-08-22T19:07:24.591Z,12.40
2022-08-22T19:10:40.029Z,14.32
2022-08-22T19:14:13.550Z,27.30
2022-08-22T19:17:43.825Z,30.90
2022-08-22T19:21:42.473Z,18.02
2022-08-22T19:25:15.528Z,28.63
2022-08-22T19:28:27.154Z,34.95
2022-08-22T19:31:50.332Z,25.13
2022-08-22T19:35:19.691Z,28.63
2022-08-22T19:38:58.650Z,28.35
2022-08-22T19:42:04.214Z,21.63
2022-08-22T19:45:23.486Z,26.85
2022-08-22T19:48:31.650Z,30.48
2022-08-22T19:51:36.911Z,33.38
2022-08-22T19:54:51.812Z,35.28
2022-08-22T19:58:13.406Z,20.45
2022-08-22T20:01:45.712Z,23.90
2022-08-22T20:05:28.007Z,27.88
2022-08-22T20:08:47.103Z,14.65
2022-08-22T20:12:03.468Z,10.55
2022-08-22T20:15:20.734Z,10.77
2022-08-22T20:19:21.326Z,8.27
2022-08-22T20:22:30.195Z,8.88
2022-08-22T20:25:44.411Z,7.15
2022-08-22T20:28:52.427Z,4.85
2022-08-22T20:31:59.076Z,6.75
2022-08-22T20:35:06.957Z,10.93
2022-08-22T20:38:18.076Z,5.82
2022-08-22T20:41:26.709Z,5.47
2022-08-22T20:44:35.249Z,6.32
2022-08-22T20:48:57.200Z,9.25
2022-08-22T20:52:07.406Z,2.85
2022-08-22T20:55:16.373Z,2.38
2022-08-22T20:58:25.069Z,2.92
2022-08-22T21:01:32.635Z,11.38
2022-08-22T21:04:53.074Z,5.78
2022-08-22T21:08:09.339Z,2.95
2022-08-22T21:11:40.725Z,3.45
2022-08-22T21:14:47.054Z,7.35
2022-08-22T21:17:52.619Z,6.60
2022-08-22T21:21:17.310Z,2.45
2022-08-22T21:24:24.373Z,7.43
2022-08-22T21:27:32.502Z,3.85
2022-08-22T21:30:37.888Z,4.47
2022-08-22T21:33:45.499Z,6.78
2022-08-22T21:36:53.972Z,8.60
2022-08-22T21:40:08.426Z,1.60
2022-08-22T21:43:36.867Z,3.50
2022-08-22T21:46:42.039Z,3.15
2022-08-22T21:50:28.330Z,7.55
2022-08-22T21:53:33.632Z,10.50
2022-08-22T21:56:40.319Z,12.15
2022-08-22T21:59:51.869Z,6.82
2022-08-22T22:03:07.370Z,14.85
2022-08-22T22:06:13.171Z,10.85
2022-08-22T22:09:19.173Z,9.80
2022-08-22T22:12:26.129Z,5.38
2022-08-22T22:15:36.818Z,9.95
2022-08-22T22:18:42.768Z,6.43
2022-08-22T22:21:48.270Z,6.15
2022-08-22T22:24:53.502Z,5.40
2022-08-22T22:28:00.827Z,5.28
2022-08-22T22:31:08.352Z,8.93
2022-08-22T22:34:16.407Z,11.35
2022-08-22T22:37:21.624Z,16.15
2022-08-22T22:40:27.049Z,58.85
2022-08-22T22:43:34.895Z,41.22
2022-08-22T22:46:40.179Z,33.20
2022-08-22T22:49:46.194Z,26.65
2022-08-22T22:52:51.690Z,28.23
2022-08-22T22:56:00.643Z,19.08
2022-08-22T22:59:12.952Z,27.35
2022-08-22T23:02:21.348Z,14.10
2022-08-22T23:05:26.786Z,21.25
2022-08-22T23:08:32.346Z,30.88
2022-08-22T23:11:38.089Z,28.63
2022-08-22T23:14:44.880Z,15.23
2022-08-22T23:17:50.347Z,8.85
2022-08-22T23:20:56.226Z,8.20
2022-08-22T23:24:01.829Z,33.05
2022-08-22T23:27:10.114Z,28.55
2022-08-22T23:30:17.330Z,20.35
2022-08-22T23:33:22.734Z,19.80
2022-08-22T23:36:29.607Z,21.85
2022-08-22T23:39:36.425Z,12.80
2022-08-22T23:42:41.802Z,20.25
2022-08-22T23:45:48.602Z,31.67
2022-08-22T23:48:54.412Z,33.08
2022-08-22T23:52:00.512Z,32.10
2022-08-22T23:55:07.125Z,17.17
2022-08-22T23:58:15.971Z,11.23
